Time;durP1;ratioP1;P1;durP2;ratioP2;P2;SDS_P1;SDS_P2;PMS_P1;PMS_P2;Temp;Humidity;BMP_temperature;BMP_pressure;BME280_temperature;BME280_humidity;BME280_pressure;Samples;Min_cycle;Max_cycle;Signal;HPM_P1;HPM_P2
2022/06/30 00:00:13;;;;;;;16.30;11.77;;;;;;;19.20;85.49;101063.84;4975281;28;20041;-42
2022/06/30 00:02:39;;;;;;;17.83;12.45;;;;;;;19.12;85.87;101057.16;4973262;28;20034;-41
2022/06/30 00:05:05;;;;;;;19.05;13.50;;;;;;;19.13;86.10;101061.38;4973129;28;20052;-43
2022/06/30 00:07:30;;;;;;;18.90;12.68;;;;;;;19.07;86.20;101056.28;4974142;28;20045;-42
2022/06/30 00:09:55;;;;;;;21.17;13.27;;;;;;;18.95;87.00;101053.72;4974620;28;20085;-42
2022/06/30 00:12:21;;;;;;;18.70;13.68;;;;;;;18.75;88.28;101056.78;4974540;28;20030;-43
2022/06/30 00:14:46;;;;;;;19.58;14.23;;;;;;;18.76;88.65;101066.22;4974843;28;20041;-42
2022/06/30 00:17:11;;;;;;;21.42;13.82;;;;;;;18.73;87.96;101050.97;4974487;28;20114;-43
2022/06/30 00:19:37;;;;;;;20.30;15.20;;;;;;;18.69;88.89;101050.63;4974721;28;20358;-42
2022/06/30 00:22:05;;;;;;;21.83;16.25;;;;;;;18.58;88.90;101050.66;4974417;28;20027;-43
2022/06/30 00:24:30;;;;;;;22.67;15.98;;;;;;;18.61;89.13;101039.72;4974865;28;20121;-42
2022/06/30 00:26:56;;;;;;;22.98;17.33;;;;;;;18.60;89.69;101035.53;4974464;28;20461;-42
2022/06/30 00:29:21;;;;;;;24.27;18.08;;;;;;;18.55;89.76;101038.84;4974874;28;20031;-43
2022/06/30 00:31:46;;;;;;;28.55;19.48;;;;;;;18.45;90.35;101034.22;4974284;28;20109;-43
2022/06/30 00:34:12;;;;;;;22.90;18.75;;;;;;;18.52;90.27;101034.06;4974614;28;20033;-43
2022/06/30 00:36:37;;;;;;;26.95;19.65;;;;;;;18.49;90.36;101027.47;4974260;28;20053;-43
2022/06/30 00:39:02;;;;;;;25.73;19.33;;;;;;;18.47;91.21;101026.94;4974648;28;20491;-42
2022/06/30 00:41:28;;;;;;;30.98;19.77;;;;;;;18.45;91.46;101023.75;4974276;28;20031;-42
2022/06/30 00:43:53;;;;;;;29.98;20.55;;;;;;;18.45;90.99;101010.66;4974297;28;20025;-42
2022/06/30 00:46:18;;;;;;;32.22;21.08;;;;;;;18.58;90.66;101022.66;4974215;28;20066;-42
2022/06/30 00:48:44;;;;;;;28.98;20.48;;;;;;;18.55;90.46;101024.97;4974235;28;20026;-42
2022/06/30 00:51:10;;;;;;;30.10;20.80;;;;;;;18.57;90.61;101020.28;4974349;28;20110;-43
2022/06/30 00:53:38;;;;;;;31.75;23.27;;;;;;;18.38;92.09;101025.69;4977938;28;20030;-43
2022/06/30 00:56:04;;;;;;;35.92;23.33;;;;;;;18.55;91.79;101009.25;4978012;28;20027;-43
2022/06/30 00:58:34;;;;;;;31.92;22.25;;;;;;;18.76;91.06;101013.88;4978166;28;20030;-42
2022/06/30 01:01:00;;;;;;;30.27;22.50;;;;;;;18.65;91.21;101017.31;4978345;28;20102;-43
2022/06/30 01:03:26;;;;;;;32.88;23.98;;;;;;;18.60;91.29;101014.59;4978024;28;20102;-42
2022/06/30 01:05:53;;;;;;;33.47;22.90;;;;;;;18.63;91.58;101016.75;4978368;28;20030;-41
2022/06/30 01:08:19;;;;;;;32.78;23.75;;;;;;;18.45;91.84;101018.50;4977709;28;20077;-42
2022/06/30 01:13:28;;;;;;;35.13;24.85;;;;;;;18.36;93.07;101019.91;4977704;28;20038;-42
2022/06/30 01:15:54;;;;;;;31.42;23.90;;;;;;;18.42;92.73;101012.97;4977881;28;20027;-43
2022/06/30 01:18:19;;;;;;;31.90;22.70;;;;;;;18.44;92.45;101016.94;4977561;28;20031;-43
2022/06/30 01:20:45;;;;;;;31.85;23.60;;;;;;;18.44;92.65;101013.50;4977900;28;20098;-42
2022/06/30 01:23:10;;;;;;;29.85;22.95;;;;;;;18.55;91.65;101007.44;4977788;28;20025;-42
2022/06/30 01:25:36;;;;;;;30.90;23.85;;;;;;;18.56;91.83;101016.88;4977781;28;20113;-42
2022/06/30 01:28:02;;;;;;;30.20;23.77;;;;;;;18.66;91.11;101016.25;4977434;28;20034;-41
2022/06/30 01:30:28;;;;;;;32.47;23.65;;;;;;;18.58;91.45;101032.34;4976058;28;20023;-41
2022/06/30 01:32:53;;;;;;;29.52;23.02;;;;;;;18.46;92.04;101025.31;4977489;28;20026;-42
2022/06/30 01:35:19;;;;;;;31.63;23.17;;;;;;;18.31;92.71;101035.50;4976324;28;20027;-43
2022/06/30 01:37:56;;;;;;;30.67;23.20;;;;;;;18.30;93.16;101041.78;4976098;28;20055;-41
2022/06/30 01:40:24;;;;;;;32.70;24.13;;;;;;;18.32;93.32;101039.69;4977459;28;20101;-43
2022/06/30 01:42:50;;;;;;;36.38;24.42;;;;;;;18.30;93.25;101033.94;4975789;28;20014;-43
2022/06/30 01:45:16;;;;;;;32.15;24.48;;;;;;;18.35;93.41;101036.63;4977372;28;20412;-41
2022/06/30 01:47:41;;;;;;;34.95;24.98;;;;;;;18.31;92.78;101027.66;4977095;28;20030;-43
2022/06/30 01:50:11;;;;;;;31.33;23.77;;;;;;;18.36;92.64;101038.22;4977783;28;20110;-42
2022/06/30 01:52:36;;;;;;;33.53;23.13;;;;;;;18.41;91.95;101033.09;4977074;28;20062;-43
2022/06/30 01:55:02;;;;;;;32.55;23.63;;;;;;;18.37;91.84;101016.25;4977176;28;20065;-43
2022/06/30 01:57:28;;;;;;;28.67;22.25;;;;;;;18.41;91.54;101022.63;4977626;28;20023;-43
2022/06/30 01:59:53;;;;;;;29.05;21.25;;;;;;;18.50;90.94;101023.06;4976737;28;20062;-43
2022/06/30 02:02:18;;;;;;;28.50;21.48;;;;;;;18.52;90.04;101026.22;4974877;28;20022;-41
2022/06/30 02:04:46;;;;;;;29.13;20.70;;;;;;;18.38;90.62;101014.44;4977035;28;20027;-42
2022/06/30 02:07:12;;;;;;;29.02;20.90;;;;;;;18.26;90.53;101017.09;4976924;28;20034;-42
2022/06/30 02:09:37;;;;;;;32.28;21.27;;;;;;;18.18;91.59;101012.22;4976611;28;20077;-41
2022/06/30 02:14:47;;;;;;;30.33;20.15;;;;;;;18.29;90.78;101026.31;4976999;28;20080;-42
2022/06/30 02:17:12;;;;;;;27.70;20.30;;;;;;;18.33;90.16;101025.63;4976816;28;20438;-42
2022/06/30 02:19:37;;;;;;;24.00;20.02;;;;;;;18.25;89.29;101020.75;4976737;28;20054;-43
2022/06/30 02:22:03;;;;;;;26.58;20.05;;;;;;;18.27;90.19;101022.09;4976438;28;20122;-43
2022/06/30 02:24:28;;;;;;;25.77;19.08;;;;;;;18.11;90.52;101016.78;4975247;28;20070;-42
2022/06/30 02:26:53;;;;;;;23.92;18.63;;;;;;;18.16;89.83;101025.53;4976614;28;20051;-46
2022/06/30 02:29:18;;;;;;;25.40;18.33;;;;;;;18.20;89.13;101023.25;4976245;28;20109;-41
2022/06/30 02:31:44;;;;;;;23.83;18.08;;;;;;;18.18;88.60;101020.06;4976144;28;20023;-43
2022/06/30 02:34:09;;;;;;;22.98;17.23;;;;;;;18.18;88.94;101020.88;4976285;28;20466;-42
2022/06/30 02:36:34;;;;;;;21.13;16.20;;;;;;;18.26;87.67;101017.88;4975970;28;20069;-42
2022/06/30 02:39:00;;;;;;;21.45;15.68;;;;;;;18.38;87.15;101024.91;4976403;28;20139;-43
2022/06/30 02:41:25;;;;;;;20.42;16.00;;;;;;;18.41;86.81;101022.63;4976082;28;20023;-43
2022/06/30 02:43:51;;;;;;;22.17;14.93;;;;;;;18.53;85.37;101019.16;4976276;28;20027;-43
2022/06/30 02:46:17;;;;;;;18.65;14.55;;;;;;;18.49;85.67;101018.84;4975996;28;20038;-43
2022/06/30 02:48:43;;;;;;;22.48;14.73;;;;;;;18.52;86.14;101020.19;4976326;28;20023;-40
2022/06/30 02:51:08;;;;;;;19.70;14.20;;;;;;;18.47;85.99;101018.25;4990834;28;20121;-43
2022/06/30 02:53:34;;;;;;;22.55;14.13;;;;;;;18.44;86.34;101014.31;4975702;28;20115;-43
2022/06/30 02:55:59;;;;;;;16.92;13.65;;;;;;;18.45;86.84;101002.81;4976066;28;20030;-43
2022/06/30 02:58:24;;;;;;;20.80;14.77;;;;;;;18.41;86.22;101004.31;4976001;28;20026;-42
2022/06/30 03:00:50;;;;;;;20.02;14.20;;;;;;;18.38;85.95;101001.34;4975963;28;20198;-42
2022/06/30 03:03:15;;;;;;;15.60;13.43;;;;;;;18.32;86.21;100989.22;4975570;28;20049;-42
2022/06/30 03:05:40;;;;;;;20.05;13.95;;;;;;;18.35;85.38;101001.81;4976030;28;20027;-42
2022/06/30 03:08:05;;;;;;;16.98;12.73;;;;;;;18.35;85.18;100993.97;4975821;28;20035;-42
2022/06/30 03:10:31;;;;;;;15.88;12.70;;;;;;;18.24;85.66;100980.72;4975773;28;20106;-42
2022/06/30 03:12:56;;;;;;;19.55;12.93;;;;;;;18.22;86.48;100995.06;4975415;28;20029;-42
2022/06/30 03:15:21;;;;;;;15.32;12.27;;;;;;;18.11;87.27;100995.88;4975709;28;20035;-41
2022/06/30 03:17:47;;;;;;;15.85;12.43;;;;;;;18.13;87.21;100997.25;4975444;28;20035;-42
2022/06/30 03:20:12;;;;;;;18.23;12.50;;;;;;;18.16;87.48;100995.97;4975254;28;20061;-42
2022/06/30 03:22:37;;;;;;;14.35;11.68;;;;;;;18.14;87.71;101000.66;4973987;28;20023;-42
2022/06/30 03:25:03;;;;;;;16.00;12.00;;;;;;;18.16;87.09;101032.59;4974007;28;20027;-43
2022/06/30 03:27:28;;;;;;;14.13;11.15;;;;;;;18.18;85.57;101014.84;4975454;28;20031;-42
2022/06/30 03:29:54;;;;;;;14.93;11.30;;;;;;;18.47;84.37;101037.41;4975182;28;20028;-40
2022/06/30 03:32:19;;;;;;;15.18;11.38;;;;;;;18.53;83.00;101024.38;4975493;28;20031;-40
2022/06/30 03:34:44;;;;;;;14.35;10.88;;;;;;;18.55;82.45;101002.19;4975542;28;20033;-41
2022/06/30 03:37:09;;;;;;;20.65;11.05;;;;;;;18.61;82.79;101040.50;4974949;28;20038;-41
2022/06/30 03:39:35;;;;;;;15.77;10.70;;;;;;;18.69;82.54;101032.28;4975488;28;20414;-41
2022/06/30 03:42:00;;;;;;;17.85;11.13;;;;;;;18.67;81.49;101018.66;4974836;28;20018;-41
2022/06/30 03:44:25;;;;;;;17.30;11.80;;;;;;;18.54;82.33;101000.63;4975195;28;20033;-42
2022/06/30 03:46:51;;;;;;;15.52;11.73;;;;;;;18.72;81.78;101012.72;4974740;28;20485;-42
2022/06/30 03:49:16;;;;;;;15.25;11.00;;;;;;;18.73;82.86;101016.94;4975160;28;20030;-42
2022/06/30 03:51:42;;;;;;;17.23;11.40;;;;;;;18.67;83.19;100999.53;4974915;28;20019;-42
2022/06/30 03:54:07;;;;;;;15.98;11.93;;;;;;;18.66;82.84;101009.19;4974800;28;20500;-42
2022/06/30 03:56:33;;;;;;;16.23;11.70;;;;;;;18.72;82.71;100997.00;4975237;28;20033;-42
2022/06/30 03:58:58;;;;;;;19.67;12.20;;;;;;;18.60;82.39;101001.50;4989628;28;20019;-42
2022/06/30 04:01:23;;;;;;;19.25;12.13;;;;;;;18.69;82.77;100994.84;4974876;28;20516;-41
2022/06/30 04:03:49;;;;;;;18.75;12.02;;;;;;;18.74;82.93;101005.44;4974602;28;20030;-42
2022/06/30 04:06:14;;;;;;;17.30;11.70;;;;;;;18.77;83.55;101004.19;4974598;28;20105;-41
2022/06/30 04:08:40;;;;;;;16.83;11.68;;;;;;;18.79;83.11;100996.88;4974605;28;20031;-42
2022/06/30 04:11:05;;;;;;;16.13;12.15;;;;;;;18.71;82.54;100995.41;4989410;28;20030;-42
2022/06/30 04:13:30;;;;;;;19.70;11.77;;;;;;;18.86;82.19;100987.06;4974478;28;20027;-41
2022/06/30 04:15:56;;;;;;;16.10;12.02;;;;;;;19.05;80.93;100995.50;4974495;28;20151;-42
2022/06/30 04:18:22;;;;;;;16.65;12.40;;;;;;;19.12;80.38;100994.28;4974535;28;20031;-42
2022/06/30 04:20:47;;;;;;;16.85;12.35;;;;;;;19.08;80.46;101001.03;4974642;28;20057;-42
2022/06/30 04:23:12;;;;;;;20.20;12.40;;;;;;;18.96;80.98;100989.03;4974763;28;20054;-43
2022/06/30 04:25:38;;;;;;;17.17;12.18;;;;;;;18.91;80.96;100985.31;4974027;28;20389;-42
2022/06/30 04:28:04;;;;;;;19.88;12.88;;;;;;;19.00;81.32;100979.69;4974243;28;20081;-43
2022/06/30 04:33:18;;;;;;;16.95;12.35;;;;;;;19.06;81.08;100976.91;4955593;28;20093;-41
2022/06/30 04:35:43;;;;;;;17.08;12.45;;;;;;;19.10;81.53;100985.06;4974315;28;20031;-43
2022/06/30 04:38:08;;;;;;;17.30;12.52;;;;;;;19.03;82.03;100984.47;4974153;28;20113;-43
2022/06/30 04:43:18;;;;;;;18.52;12.57;;;;;;;19.14;81.31;100983.59;4974442;28;20429;-43
2022/06/30 04:45:43;;;;;;;19.52;12.65;;;;;;;19.17;80.62;100975.25;4974247;28;20026;-42
2022/06/30 04:48:09;;;;;;;18.58;12.77;;;;;;;19.27;81.97;100982.44;4974721;28;20029;-42
2022/06/30 04:50:34;;;;;;;17.70;13.20;;;;;;;19.21;81.59;100981.59;4974664;28;20469;-42
2022/06/30 04:53:00;;;;;;;16.77;12.75;;;;;;;19.21;81.78;100989.44;4974069;28;20105;-42
2022/06/30 04:55:25;;;;;;;20.45;12.20;;;;;;;19.32;80.59;100996.44;4974626;28;20038;-43
2022/06/30 04:57:50;;;;;;;17.40;12.18;;;;;;;19.41;81.52;100999.44;4974429;28;20048;-43
2022/06/30 05:00:16;;;;;;;16.77;12.57;;;;;;;19.35;80.76;100995.94;4974344;28;20018;-42
2022/06/30 05:02:41;;;;;;;16.60;12.85;;;;;;;19.39;79.98;101001.50;4974529;28;20473;-41
2022/06/30 05:05:07;;;;;;;18.00;13.18;;;;;;;19.30;80.70;101006.34;4974199;28;20390;-43
2022/06/30 05:07:32;;;;;;;20.10;13.27;;;;;;;19.47;80.70;101008.16;4974056;28;20038;-42
2022/06/30 05:09:58;;;;;;;20.60;13.00;;;;;;;19.44;79.79;101008.66;4974244;28;20081;-42
2022/06/30 05:12:23;;;;;;;18.02;12.88;;;;;;;19.59;78.99;101003.59;4974182;28;20031;-42
2022/06/30 05:14:49;;;;;;;18.80;13.23;;;;;;;19.64;78.93;101016.00;4974081;28;20112;-42
2022/06/30 05:17:14;;;;;;;17.75;13.55;;;;;;;19.63;79.04;101014.44;4974314;28;20162;-43
2022/06/30 05:19:39;;;;;;;18.80;14.40;;;;;;;19.72;78.77;101010.38;4973989;28;20029;-42
2022/06/30 05:22:05;;;;;;;18.20;13.88;;;;;;;19.76;79.39;101020.13;4973670;28;20027;-43
2022/06/30 05:27:15;;;;;;;21.52;14.65;;;;;;;19.94;77.42;101026.94;4974289;28;20049;-43
2022/06/30 05:29:41;;;;;;;18.90;13.60;;;;;;;20.02;77.85;101042.25;4973685;28;20030;-43
2022/06/30 05:32:07;;;;;;;21.13;14.80;;;;;;;20.17;76.84;101015.41;4973532;28;20136;-42
2022/06/30 05:34:34;;;;;;;20.67;15.00;;;;;;;21.01;73.64;101011.53;4973911;28;20473;-43
2022/06/30 05:36:59;;;;;;;20.02;14.10;;;;;;;23.32;64.92;101013.94;4973869;28;20409;-41
2022/06/30 05:39:24;;;;;;;23.92;14.18;;;;;;;26.19;54.91;101025.91;4976456;28;20019;-45
2022/06/30 05:41:50;;;;;;;17.88;12.65;;;;;;;28.00;48.54;101018.06;4975706;28;20027;-43
2022/06/30 05:44:15;;;;;;;17.60;12.57;;;;;;;30.52;43.84;101011.19;4977204;28;20489;-43
2022/06/30 05:46:40;;;;;;;18.70;11.82;;;;;;;31.09;41.12;101028.03;4977024;28;20050;-42
2022/06/30 05:49:08;;;;;;;16.67;11.75;;;;;;;30.32;42.37;101014.50;4977212;28;20035;-40
2022/06/30 05:51:33;;;;;;;14.55;11.60;;;;;;;30.27;42.52;101004.78;4977395;28;20031;-41
2022/06/30 05:53:59;;;;;;;20.55;11.77;;;;;;;29.90;44.22;101012.28;4977066;28;20454;-42
2022/06/30 05:56:24;;;;;;;21.20;11.43;;;;;;;31.11;41.03;101017.81;4976223;28;20026;-41
2022/06/30 05:58:49;;;;;;;14.77;11.40;;;;;;;30.87;41.55;101021.81;4975418;28;20278;-40
2022/06/30 06:01:15;;;;;;;16.67;11.35;;;;;;;30.71;42.14;101021.50;4976542;28;20058;-42
2022/06/30 06:03:40;;;;;;;14.75;11.35;;;;;;;29.71;43.56;101032.28;4976359;28;20047;-43
2022/06/30 06:06:05;;;;;;;14.27;11.75;;;;;;;30.02;43.20;101016.97;4978454;28;20429;-45
2022/06/30 06:08:31;;;;;;;17.20;11.73;;;;;;;29.78;43.66;101027.28;4976828;28;20030;-42
2022/06/30 06:10:56;;;;;;;15.75;11.45;;;;;;;30.40;42.40;101026.25;4976566;28;20109;-41
2022/06/30 06:13:21;;;;;;;17.67;12.55;;;;;;;30.34;42.93;101020.31;4976797;28;20019;-41
2022/06/30 06:15:47;;;;;;;20.38;12.95;;;;;;;30.91;41.83;101016.63;4976594;28;20027;-41
2022/06/30 06:21:08;;;;;;;17.98;13.15;;;;;;;31.33;41.14;101027.44;4975145;28;20047;-73
2022/06/30 06:23:33;;;;;;;19.95;14.00;;;;;;;30.94;42.58;101018.66;4975480;28;20074;-74
2022/06/30 06:25:58;;;;;;;17.20;14.10;;;;;;;30.15;44.03;101039.22;4976787;28;20091;-72
2022/06/30 06:31:09;;;;;;;28.95;15.40;;;;;;;29.36;46.11;101027.59;4976384;28;20042;-74
2022/06/30 06:33:35;;;;;;;17.85;13.98;;;;;;;30.41;44.21;101030.47;4991012;28;20019;-74
2022/06/30 06:36:01;;;;;;;20.02;13.77;;;;;;;29.70;45.63;101039.50;4974947;28;20027;-74
2022/06/30 06:38:27;;;;;;;20.98;11.93;;;;;;;29.56;46.04;101060.88;4976128;28;20390;-74
2022/06/30 06:40:52;;;;;;;13.90;8.43;;;;;;;28.53;46.95;101037.91;4976289;28;20030;-73
2022/06/30 06:43:17;;;;;;;14.07;7.03;;;;;;;26.60;50.48;101029.84;4976098;28;20030;-74
2022/06/30 06:45:43;;;;;;;10.48;4.88;;;;;;;26.28;52.65;101031.34;4975857;28;20405;-75
2022/06/30 06:48:08;;;;;;;9.15;5.35;;;;;;;25.53;54.30;101032.75;4990730;28;20058;-74
2022/06/30 06:50:33;;;;;;;15.77;4.90;;;;;;;25.31;55.30;101041.16;4973922;28;20156;-73
2022/06/30 06:52:59;;;;;;;11.10;4.53;;;;;;;25.62;54.48;101040.84;4974689;28;20023;-74
2022/06/30 06:55:24;;;;;;;9.45;4.95;;;;;;;25.17;56.14;101043.66;4990861;28;20030;-75
2022/06/30 06:57:50;;;;;;;9.73;4.18;;;;;;;24.99;56.96;101052.25;4977406;28;20038;-74
2022/06/30 07:00:16;;;;;;;12.60;4.38;;;;;;;25.13;56.74;101052.41;4976553;28;20390;-73
2022/06/30 07:02:42;;;;;;;9.30;4.20;;;;;;;25.62;55.38;101046.16;4975567;28;20046;-74
2022/06/30 07:05:07;;;;;;;11.73;3.95;;;;;;;25.29;56.72;101048.59;4974348;28;20023;-75
2022/06/30 07:07:34;;;;;;;7.22;3.70;;;;;;;25.30;57.31;101054.69;4974466;28;20027;-76
2022/06/30 07:09:59;;;;;;;7.35;3.58;;;;;;;25.88;55.24;101063.34;4975076;28;20062;-75
2022/06/30 07:12:24;;;;;;;9.32;3.92;;;;;;;25.76;55.83;101083.31;4973751;28;20073;-73
2022/06/30 07:14:50;;;;;;;7.47;3.30;;;;;;;26.00;53.93;101080.69;4975051;28;20205;-74
2022/06/30 07:17:16;;;;;;;12.23;4.60;;;;;;;25.85;53.69;101076.38;4975114;28;20031;-74
2022/06/30 07:19:42;;;;;;;7.88;3.60;;;;;;;25.31;56.45;101080.03;4973936;28;20062;-74
2022/06/30 07:22:07;;;;;;;8.35;3.90;;;;;;;25.55;55.18;101082.72;4975226;28;20111;-75
2022/06/30 07:24:33;;;;;;;9.25;4.50;;;;;;;25.53;55.76;101088.31;4974933;28;20105;-73
2022/06/30 07:26:58;;;;;;;9.10;4.40;;;;;;;25.74;55.42;101094.19;4975098;28;20026;-74
2022/06/30 07:29:23;;;;;;;9.73;4.70;;;;;;;25.62;55.06;101097.22;4975041;28;20274;-74
2022/06/30 07:31:48;;;;;;;10.43;4.77;;;;;;;25.39;55.96;101111.19;4974924;28;20277;-74
2022/06/30 07:34:14;;;;;;;11.33;3.60;;;;;;;25.77;55.62;101120.09;4975081;28;20341;-76
2022/06/30 07:36:41;;;;;;;9.63;4.32;;;;;;;25.69;55.14;101127.84;4979660;28;20282;-74
2022/06/30 07:39:06;;;;;;;9.98;3.90;;;;;;;25.92;55.26;101127.09;4990125;28;20053;-73
2022/06/30 07:41:32;;;;;;;9.52;4.10;;;;;;;25.90;54.55;101123.97;4974999;28;20031;-73
2022/06/30 07:43:57;;;;;;;12.82;4.47;;;;;;;25.93;54.34;101125.25;4973728;28;20015;-75
2022/06/30 07:46:23;;;;;;;10.35;3.95;;;;;;;26.15;53.72;101124.72;4974857;28;20022;-73
2022/06/30 07:48:49;;;;;;;8.73;3.25;;;;;;;26.36;54.10;101130.59;4989642;28;20505;-74
2022/06/30 07:51:17;;;;;;;7.50;3.80;;;;;;;26.16;52.76;101128.97;4974687;28;20478;-73
2022/06/30 07:53:42;;;;;;;9.88;3.92;;;;;;;26.16;52.14;101129.75;4974572;28;20108;-74
2022/06/30 07:56:08;;;;;;;8.00;3.50;;;;;;;25.77;53.09;101132.53;4972887;28;20030;-74
2022/06/30 07:58:33;;;;;;;9.13;2.78;;;;;;;26.33;53.07;101135.38;4973038;28;20506;-74
2022/06/30 08:00:59;;;;;;;10.73;3.25;;;;;;;26.65;52.13;101127.84;4972942;28;20030;-73
2022/06/30 08:03:25;;;;;;;10.40;2.70;;;;;;;27.14;51.44;101135.31;4973808;28;20023;-73
2022/06/30 08:05:50;;;;;;;8.98;3.30;;;;;;;26.69;50.79;101129.63;4990382;28;20373;-75
2022/06/30 08:08:15;;;;;;;9.60;2.92;;;;;;;26.57;50.63;101131.13;4976337;28;20026;-74
2022/06/30 08:10:41;;;;;;;10.15;3.25;;;;;;;26.74;51.59;101134.06;4975854;28;20106;-74
2022/06/30 08:13:06;;;;;;;9.60;2.83;;;;;;;27.07;50.56;101139.41;4975084;28;20042;-74
2022/06/30 08:15:31;;;;;;;8.18;3.10;;;;;;;26.36;51.05;101139.31;4975631;28;20541;-74
2022/06/30 08:18:02;;;;;;;7.93;2.42;;;;;;;26.95;51.58;101137.22;4975634;28;20065;-72
2022/06/30 08:20:27;;;;;;;7.75;2.38;;;;;;;26.87;50.74;101140.50;4974382;28;20041;-73
2022/06/30 08:22:53;;;;;;;7.35;2.90;;;;;;;26.72;51.94;101131.69;4976115;28;20026;-75
2022/06/30 08:25:18;;;;;;;13.05;2.90;;;;;;;27.66;50.61;101136.06;4992702;28;20082;-81
2022/06/30 08:27:43;;;;;;;9.13;3.00;;;;;;;27.06;49.76;101135.19;4996493;28;20023;-80
2022/06/30 08:30:09;;;;;;;6.57;2.60;;;;;;;27.27;49.66;101136.47;4997680;28;20018;-80
2022/06/30 08:32:35;;;;;;;7.20;2.58;;;;;;;27.61;49.35;101132.72;4997568;28;20035;-82
2022/06/30 08:35:00;;;;;;;11.25;3.03;;;;;;;27.44;48.19;101151.84;4997174;28;20042;-83
2022/06/30 08:37:25;;;;;;;8.35;2.95;;;;;;;27.43;48.97;101140.44;4995914;28;20019;-78
2022/06/30 08:42:37;;;;;;;11.07;3.20;;;;;;;27.75;46.89;101132.72;4997870;28;20091;-80
2022/06/30 08:45:35;;;;;;;10.23;3.00;;;;;;;27.16;47.86;101133.22;4997964;28;20117;-81
2022/06/30 08:47:54;;;;;;;8.13;2.60;;;;;;;27.79;47.22;101137.16;4996915;28;20034;-81
2022/06/30 08:50:19;;;;;;;9.65;3.00;;;;;;;27.14;47.83;101139.84;4997102;28;20273;-79
2022/06/30 08:52:51;;;;;;;10.82;2.50;;;;;;;27.56;46.28;101146.06;4994940;28;20081;-83
2022/06/30 08:55:18;;;;;;;8.45;2.92;;;;;;;27.77;45.79;101147.28;4992925;28;20027;-83
2022/06/30 08:57:46;;;;;;;8.55;2.10;;;;;;;27.82;45.70;101149.88;4985641;28;20077;-82
2022/06/30 09:00:13;;;;;;;6.93;2.60;;;;;;;27.89;44.67;101160.91;4985822;28;20023;-83
2022/06/30 09:02:39;;;;;;;7.18;2.30;;;;;;;27.56;45.81;101148.72;4982683;28;20477;-82
2022/06/30 09:05:06;;;;;;;10.10;2.70;;;;;;;27.31;45.33;101150.75;4981931;28;20102;-82
2022/06/30 09:07:31;;;;;;;11.00;2.10;;;;;;;27.52;45.58;101143.22;4979864;28;20031;-82
2022/06/30 09:09:57;;;;;;;9.15;2.20;;;;;;;28.43;44.13;101147.13;4986162;28;20108;-82
2022/06/30 09:12:22;;;;;;;10.52;2.20;;;;;;;28.61;44.32;101148.84;5001012;28;20031;-83
2022/06/30 09:14:48;;;;;;;10.18;2.33;;;;;;;28.44;43.03;101154.00;4987967;28;20023;-81
2022/06/30 09:17:16;;;;;;;9.75;2.53;;;;;;;27.91;45.07;101152.66;4988440;28;20023;-82
2022/06/30 09:20:05;;;;;;;6.03;2.10;;;;;;;28.55;42.64;101158.81;4984949;28;20161;-83
2022/06/30 09:22:39;;;;;;;6.93;2.20;;;;;;;28.64;44.25;101168.75;5002321;28;20031;-80
2022/06/30 09:25:05;;;;;;;9.60;2.30;;;;;;;28.78;41.65;101153.53;4990971;28;20029;-81
2022/06/30 09:27:35;;;;;;;10.60;2.20;;;;;;;28.16;41.83;101151.34;4982093;28;20390;-81
2022/06/30 09:30:07;;;;;;;4.57;2.03;;;;;;;27.82;42.55;101151.72;4980914;28;20036;-80
2022/06/30 09:32:42;;;;;;;;;;;;;;;28.59;42.92;101150.22;4996177;28;20113;-81
2022/06/30 09:35:10;;;;;;;8.32;2.30;;;;;;;28.28;42.71;101151.66;4982890;28;19902;-80
2022/06/30 09:37:36;;;;;;;9.80;2.80;;;;;;;28.34;43.01;101147.81;4991002;28;20054;-80
2022/06/30 09:40:03;;;;;;;9.00;3.30;;;;;;;28.29;43.54;101155.09;4984150;28;20046;-80
2022/06/30 09:42:43;;;;;;;7.85;2.53;;;;;;;28.50;42.04;101150.16;4982294;28;20041;-80
2022/06/30 09:45:11;;;;;;;8.25;2.50;;;;;;;28.82;43.10;101159.03;4982879;28;20502;-80
2022/06/30 09:47:37;;;;;;;6.90;2.30;;;;;;;28.97;41.41;101150.69;4981841;28;20026;-80
2022/06/30 09:50:05;;;;;;;6.90;1.92;;;;;;;28.65;41.96;101154.34;4981093;28;20107;-79
2022/06/30 09:52:31;;;;;;;6.13;1.92;;;;;;;29.34;41.81;101156.75;4979536;28;20126;-79
2022/06/30 09:55:03;;;;;;;8.57;2.15;;;;;;;29.29;41.20;101163.00;4981412;28;20058;-79
2022/06/30 09:57:31;;;;;;;12.68;2.92;;;;;;;28.96;42.13;101165.88;4980895;28;20080;-79
2022/06/30 10:00:04;;;;;;;7.70;2.10;;;;;;;29.06;41.12;101164.91;4977362;28;20033;-78
2022/06/30 10:02:32;;;;;;;7.00;2.08;;;;;;;28.94;41.40;101157.41;4980941;28;20034;-78
2022/06/30 10:04:59;;;;;;;8.18;2.28;;;;;;;29.02;41.51;101163.88;4980545;28;20065;-82
2022/06/30 10:07:24;;;;;;;9.60;2.33;;;;;;;29.11;39.48;101166.63;4980977;28;20478;-80
2022/06/30 10:09:51;;;;;;;5.00;2.00;;;;;;;29.16;40.96;101169.97;4981187;28;20029;-78
2022/06/30 10:12:23;;;;;;;6.32;2.10;;;;;;;29.29;41.46;101170.19;4975551;28;20018;-78
2022/06/30 10:14:50;;;;;;;6.82;2.63;;;;;;;29.67;39.78;101170.59;4979985;28;20567;-75
2022/06/30 10:17:22;;;;;;;7.75;1.95;;;;;;;29.97;40.09;101176.97;4976813;28;20043;-77
2022/06/30 10:19:48;;;;;;;6.88;2.08;;;;;;;29.84;40.03;101168.00;4976170;28;20110;-77
2022/06/30 10:22:15;;;;;;;6.18;1.67;;;;;;;29.98;39.84;101167.91;4976070;28;20078;-78
2022/06/30 10:24:41;;;;;;;4.63;2.00;;;;;;;29.86;39.24;101163.13;4976615;28;20018;-78
2022/06/30 10:27:15;;;;;;;6.38;2.00;;;;;;;29.95;39.80;101157.84;4978189;28;20085;-80
2022/06/30 10:29:47;;;;;;;6.07;1.80;;;;;;;30.23;39.48;101162.97;4978149;28;20078;-78
2022/06/30 10:32:22;;;;;;;6.60;1.70;;;;;;;30.21;40.33;101163.28;4978653;28;20035;-79
2022/06/30 10:34:58;;;;;;;8.13;2.15;;;;;;;30.83;38.29;101167.59;4980093;28;20050;-79
2022/06/30 10:37:31;;;;;;;4.93;1.50;;;;;;;30.44;38.44;101163.16;4978582;28;20030;-78
2022/06/30 10:40:09;;;;;;;4.05;1.73;;;;;;;29.97;38.65;101170.88;4977946;28;20029;-78
2022/06/30 10:42:44;;;;;;;6.72;2.20;;;;;;;30.42;37.64;101173.38;4978475;28;20422;-79
2022/06/30 10:45:30;;;;;;;3.75;2.00;;;;;;;30.12;38.64;101165.91;4978574;28;20081;-78
2022/06/30 10:48:07;;;;;;;6.00;2.17;;;;;;;29.23;38.76;101164.19;4978737;28;20105;-78
2022/06/30 10:50:38;;;;;;;4.35;1.60;;;;;;;29.38;39.67;101163.06;4977648;28;20553;-78
2022/06/30 10:53:05;;;;;;;4.85;1.80;;;;;;;29.61;39.53;101166.47;4975986;28;20058;-79
2022/06/30 10:56:00;;;;;;;6.68;1.80;;;;;;;29.60;39.84;101165.66;4975324;28;20042;-79
2022/06/30 10:58:25;;;;;;;11.43;1.80;;;;;;;29.27;42.08;101165.19;4959653;28;20049;-77
2022/06/30 11:01:04;;;;;;;7.07;1.70;;;;;;;30.34;39.84;101159.69;4976478;28;20026;-78
2022/06/30 11:03:33;;;;;;;7.57;1.90;;;;;;;29.71;39.77;101152.13;4976561;28;20110;-79
2022/06/30 11:06:06;;;;;;;4.88;1.70;;;;;;;30.48;39.75;101153.44;4978640;28;20050;-80
2022/06/30 11:08:50;;;;;;;5.22;1.70;;;;;;;29.70;40.99;101153.22;4976740;28;20482;-77
2022/06/30 11:11:24;;;;;;;8.25;1.80;;;;;;;30.24;39.93;101164.53;4976256;28;20443;-78
2022/06/30 11:14:10;;;;;;;6.53;1.95;;;;;;;29.70;39.53;101151.34;4976295;28;20022;-79
2022/06/30 11:16:37;;;;;;;6.10;1.85;;;;;;;29.88;40.27;101154.84;4966681;28;20067;-80
2022/06/30 11:19:04;;;;;;;5.82;1.88;;;;;;;29.94;40.13;101158.94;4976418;28;20026;-80
2022/06/30 11:21:31;;;;;;;5.00;1.60;;;;;;;30.00;40.67;101160.38;4986733;28;20030;-80
2022/06/30 11:24:01;;;;;;;7.13;1.70;;;;;;;30.43;38.83;101165.03;4996424;28;20030;-78
2022/06/30 11:29:13;;;;;;;4.53;1.92;;;;;;;29.35;39.19;101161.00;4975950;28;20053;-78
2022/06/30 11:31:40;;;;;;;5.05;1.70;;;;;;;29.18;41.88;101154.47;4974927;28;20113;-78
2022/06/30 11:34:14;;;;;;;6.15;1.70;;;;;;;29.40;40.85;101142.22;4976387;28;20085;-78
2022/06/30 11:36:42;;;;;;;4.88;1.38;;;;;;;30.11;40.09;101151.00;4973200;28;20027;-76